Aviation Digital Data Service (ADDS)

Output produced by METARs form (1945 UTC 18 October 2018)
found at http://aviationweather.gov/metar/data/
 
LFLY 181930Z AUTO 20003KT CAVOK 15/09 Q1016 NOSIG
LFLY 181900Z AUTO 18004KT CAVOK 15/09 Q1016 NOSIG
TAF LFLY 181700Z 1818/1918 36008KT CAVOK